Aviation Digital Data Service (ADDS)

Output produced by TAFs form (1857 UTC 02 September 2014)
found at http://www.aviationweather.gov/adds/tafs/
 
KBJC 021846Z 12004KT 30SM FEW100 26/05 A3009
KBJC 021720Z 0218/0318 VRB05KT P6SM SKC 
     FM022000 08007KT P6SM FEW080 
     FM030300 26005KT P6SM FEW100 
     FM030700 27009KT P6SM SKC 
     FM031500 27012KT P6SM SKC